Time;durP1;ratioP1;P1;durP2;ratioP2;P2;SDS_P1;SDS_P2;PMS_P1;PMS_P2;Temp;Humidity;BMP_temperature;BMP_pressure;BME280_temperature;BME280_humidity;BME280_pressure;Samples;Min_cycle;Max_cycle;Signal;HPM_P1;HPM_P2
2022/01/20 00:00:19;;;;;;;14.33;4.33;;;3.60;99.90;;;;;;5060874;28;20193;-66
2022/01/20 00:02:47;;;;;;;9.20;3.93;;;3.60;99.90;;;;;;5058348;28;20291;-66
2022/01/20 00:27:09;;;;;;;8.50;3.37;;;3.80;99.90;;;;;;5052553;28;20297;-69
2022/01/20 00:30:02;;;;;;;12.00;4.10;;;3.80;99.90;;;;;;5064298;28;20521;-66
2022/01/20 00:32:27;;;;;;;9.87;4.30;;;3.90;99.90;;;;;;5055535;28;20687;-67
2022/01/20 00:37:20;;;;;;;19.43;4.63;;;3.90;99.90;;;;;;5055743;28;20206;-67
2022/01/20 00:39:47;;;;;;;10.30;4.00;;;3.90;99.90;;;;;;5056679;28;20663;-67
2022/01/20 00:42:13;;;;;;;15.03;4.53;;;4.00;99.90;;;;;;5051904;28;20202;-66
2022/01/20 00:44:38;;;;;;;9.67;3.53;;;4.00;99.90;;;;;;5061169;28;20189;-67
2022/01/20 00:47:04;;;;;;;13.93;3.77;;;4.10;99.90;;;;;;5053859;28;20190;-66
2022/01/20 00:49:30;;;;;;;20.00;3.80;;;4.10;99.90;;;;;;5055893;28;20191;-67
2022/01/20 00:51:55;;;;;;;16.63;4.43;;;4.20;99.90;;;;;;5057174;28;20263;-68
2022/01/20 00:54:21;;;;;;;13.87;3.60;;;4.20;99.90;;;;;;5055524;28;20234;-66
2022/01/20 00:56:47;;;;;;;16.37;3.87;;;4.20;99.90;;;;;;5060326;28;20202;-66
2022/01/20 00:59:13;;;;;;;15.67;2.93;;;4.20;99.90;;;;;;5057984;28;20760;-66
2022/01/20 01:01:39;;;;;;;10.40;3.33;;;4.20;99.90;;;;;;5053069;28;20668;-66
2022/01/20 01:04:05;;;;;;;13.37;3.07;;;4.20;99.90;;;;;;5060455;28;20261;-66
2022/01/20 01:06:51;;;;;;;13.87;2.63;;;4.20;99.90;;;;;;5068195;28;20992;-66
2022/01/20 01:09:17;;;;;;;8.83;2.63;;;4.20;99.90;;;;;;5067766;28;20681;-63
2022/01/20 01:11:45;;;;;;;11.03;2.90;;;4.20;99.90;;;;;;5068065;28;20206;-65
2022/01/20 01:14:11;;;;;;;14.07;3.07;;;4.10;99.90;;;;;;5078489;28;20220;-61
2022/01/20 01:20:01;;;;;;;12.37;3.17;;;4.00;99.90;;;;;;5069540;28;20656;-61
2022/01/20 01:24:37;;;;;;;14.73;3.00;;;3.90;99.90;;;;;;5074392;28;20192;-62
2022/01/20 01:27:03;;;;;;;12.90;2.50;;;3.90;99.90;;;;;;5065014;28;20202;-61
2022/01/20 01:32:06;;;;;;;20.20;4.23;;;3.90;99.90;;;;;;5067342;28;20518;-64
2022/01/20 01:34:35;;;;;;;18.83;3.60;;;3.90;99.90;;;;;;5074402;28;20584;-64
2022/01/20 01:39:25;;;;;;;9.93;2.83;;;3.80;99.90;;;;;;5075627;28;20266;-66
2022/01/20 01:41:51;;;;;;;13.70;3.53;;;3.80;99.90;;;;;;5065412;28;20669;-65
2022/01/20 01:44:23;;;;;;;17.67;3.57;;;3.80;99.90;;;;;;5072776;28;20214;-66
2022/01/20 01:46:49;;;;;;;20.80;3.57;;;3.80;99.90;;;;;;5062471;28;20197;-64
2022/01/20 01:49:16;;;;;;;12.57;3.63;;;3.70;99.90;;;;;;5067555;28;20649;-65
2022/01/20 01:51:42;;;;;;;9.03;2.97;;;3.70;99.90;;;;;;5065775;28;20295;-65
2022/01/20 01:54:08;;;;;;;11.73;3.07;;;3.70;99.90;;;;;;5066453;28;20275;-66
2022/01/20 01:56:35;;;;;;;15.00;3.33;;;3.60;99.90;;;;;;5061890;28;20210;-65
2022/01/20 01:59:01;;;;;;;10.70;2.50;;;3.70;99.90;;;;;;5056340;28;20249;-63
2022/01/20 02:01:31;;;;;;;14.87;3.50;;;3.80;99.90;;;;;;5054543;28;20190;-63
2022/01/20 02:04:00;;;;;;;10.70;2.83;;;3.70;99.90;;;;;;5055915;28;20277;-63
2022/01/20 02:09:27;;;;;;;13.47;2.87;;;3.70;99.90;;;;;;5050927;28;20192;-62
2022/01/20 02:20:13;;;;;;;17.90;3.50;;;3.40;99.90;;;;;;5054048;28;20195;-62
2022/01/20 02:22:38;;;;;;;7.07;2.30;;;3.40;99.90;;;;;;5059356;28;20743;-62
2022/01/20 02:25:04;;;;;;;11.30;3.50;;;3.40;99.90;;;;;;5063872;28;20190;-62
2022/01/20 02:27:30;;;;;;;9.07;2.43;;;3.40;99.90;;;;;;5057786;28;20825;-63
2022/01/20 02:29:55;;;;;;;13.03;3.57;;;3.40;99.90;;;;;;5059418;28;20233;-61
2022/01/20 02:32:21;;;;;;;12.50;3.57;;;3.40;99.90;;;;;;5061923;28;20582;-62
2022/01/20 02:34:46;;;;;;;13.87;3.40;;;3.40;99.90;;;;;;5063936;28;20292;-63
2022/01/20 02:37:14;;;;;;;8.93;2.93;;;3.40;99.90;;;;;;5055672;28;20222;-63
2022/01/20 02:40:13;;;;;;;9.77;2.60;;;3.30;99.90;;;;;;5057077;28;20280;-63
2022/01/20 02:45:15;;;;;;;15.17;3.67;;;3.20;99.90;;;;;;5052991;28;20259;-62
2022/01/20 02:47:41;;;;;;;15.37;3.87;;;3.20;99.90;;;;;;5059568;28;20201;-62
2022/01/20 02:50:07;;;;;;;8.47;2.67;;;3.20;99.90;;;;;;5063933;28;20559;-62
2022/01/20 02:52:32;;;;;;;12.40;2.43;;;3.20;99.90;;;;;;5052603;28;20213;-62
2022/01/20 02:54:58;;;;;;;10.73;2.63;;;3.10;99.90;;;;;;5063939;28;20200;-62
2022/01/20 02:57:24;;;;;;;9.47;2.30;;;3.10;99.90;;;;;;5054080;28;20676;-63
2022/01/20 02:59:50;;;;;;;7.37;2.27;;;3.10;99.90;;;;;;5063698;28;20308;-63
2022/01/20 03:02:16;;;;;;;12.13;2.53;;;3.00;99.90;;;;;;5054883;28;20293;-62
2022/01/20 03:04:41;;;;;;;7.30;1.87;;;3.00;99.90;;;;;;5056942;28;20200;-63
2022/01/20 03:07:07;;;;;;;7.87;2.07;;;2.90;99.90;;;;;;5055666;28;20203;-62
2022/01/20 03:09:32;;;;;;;11.03;2.10;;;2.90;99.90;;;;;;5062140;28;20637;-62
2022/01/20 03:12:00;;;;;;;12.13;2.93;;;2.90;99.90;;;;;;5058312;28;20270;-61
2022/01/20 03:14:25;;;;;;;8.57;2.87;;;2.90;99.90;;;;;;5051831;28;20198;-62
2022/01/20 03:16:51;;;;;;;9.93;2.53;;;2.80;99.90;;;;;;5061368;28;20212;-61
2022/01/20 03:19:17;;;;;;;10.60;2.90;;;2.90;99.90;;;;;;5055317;28;20217;-61
2022/01/20 03:21:43;;;;;;;11.30;2.97;;;2.90;99.90;;;;;;5063475;28;20921;-62
2022/01/20 03:24:10;;;;;;;11.90;2.37;;;2.90;99.90;;;;;;5067870;28;20221;-62
2022/01/20 03:26:36;;;;;;;9.17;2.60;;;2.90;99.90;;;;;;5061980;28;20194;-61
2022/01/20 03:29:03;;;;;;;12.80;2.60;;;2.80;99.90;;;;;;5053151;28;20281;-61
2022/01/20 03:31:30;;;;;;;9.43;1.80;;;2.80;99.90;;;;;;5066649;28;20618;-61
2022/01/20 03:33:57;;;;;;;4.77;2.87;;;2.90;99.90;;;;;;5062812;28;20272;-63
2022/01/20 03:36:22;;;;;;;10.60;2.60;;;2.80;99.90;;;;;;5066967;28;20213;-62
2022/01/20 03:38:48;;;;;;;5.67;1.70;;;2.70;99.90;;;;;;5054699;28;20212;-62
2022/01/20 03:41:14;;;;;;;9.40;2.53;;;2.70;99.90;;;;;;5067663;28;20683;-62
2022/01/20 03:43:39;;;;;;;4.43;1.60;;;2.80;99.90;;;;;;5055719;28;20202;-62
2022/01/20 03:46:11;;;;;;;9.37;2.50;;;2.80;99.90;;;;;;5067075;28;20182;-62
2022/01/20 03:48:48;;;;;;;9.83;2.83;;;2.70;99.90;;;;;;5047041;28;20252;-62
2022/01/20 03:51:14;;;;;;;13.63;2.43;;;2.80;99.90;;;;;;5059482;28;20272;-62
2022/01/20 03:53:39;;;;;;;19.23;3.20;;;2.80;99.90;;;;;;5052661;28;20289;-62
2022/01/20 03:56:06;;;;;;;10.00;2.50;;;2.90;99.90;;;;;;5067307;28;20200;-64
2022/01/20 03:58:31;;;;;;;16.80;2.93;;;2.90;99.90;;;;;;5056991;28;20206;-61
2022/01/20 04:00:57;;;;;;;14.10;3.57;;;2.90;99.90;;;;;;5066793;28;20204;-62
2022/01/20 04:03:23;;;;;;;13.70;2.80;;;3.00;99.90;;;;;;5061507;28;20212;-62
2022/01/20 04:05:58;;;;;;;20.13;2.70;;;3.10;99.90;;;;;;5066723;28;20267;-62
2022/01/20 04:08:36;;;;;;;13.57;2.80;;;3.10;99.90;;;;;;5049480;28;20645;-63
2022/01/20 04:11:05;;;;;;;10.83;2.43;;;3.10;99.90;;;;;;5052561;28;20189;-63
2022/01/20 04:13:32;;;;;;;13.70;3.37;;;3.00;99.90;;;;;;5056484;28;20203;-63
2022/01/20 04:16:11;;;;;;;8.03;2.47;;;3.00;99.90;;;;;;5062077;28;20555;-63
2022/01/20 04:18:36;;;;;;;12.00;2.63;;;3.00;99.90;;;;;;5055416;28;20253;-63
2022/01/20 04:21:02;;;;;;;7.10;1.90;;;3.10;99.90;;;;;;5066408;28;20245;-63
2022/01/20 04:23:30;;;;;;;12.83;3.40;;;3.10;99.90;;;;;;5051260;28;20206;-62
2022/01/20 04:25:56;;;;;;;10.57;2.03;;;2.80;99.90;;;;;;5062021;28;20194;-63
2022/01/20 04:28:21;;;;;;;3.47;0.93;;;2.50;99.90;;;;;;5055181;28;20215;-62
2022/01/20 04:30:47;;;;;;;4.07;1.07;;;2.00;99.90;;;;;;5066430;28;20197;-62
2022/01/20 04:33:13;;;;;;;6.43;1.27;;;1.60;99.90;;;;;;5064462;28;20198;-61
2022/01/20 04:35:38;;;;;;;2.10;1.17;;;1.30;99.90;;;;;;5060614;28;20230;-61
2022/01/20 04:38:04;;;;;;;3.00;1.30;;;1.20;99.90;;;;;;5050001;28;20897;-61
2022/01/20 04:40:36;;;;;;;2.73;1.27;;;1.10;99.90;;;;;;5065808;28;20197;-61
2022/01/20 04:43:02;;;;;;;4.33;1.67;;;1.00;99.90;;;;;;5044721;28;20250;-60
2022/01/20 04:45:33;;;;;;;5.03;0.97;;;1.00;99.90;;;;;;5065183;28;20262;-61
2022/01/20 04:48:24;;;;;;;5.17;1.57;;;1.00;99.90;;;;;;5053315;28;20233;-61
2022/01/20 04:59:03;;;;;;;5.13;1.73;;;0.80;99.90;;;;;;5046192;28;20222;-62
2022/01/20 05:01:29;;;;;;;5.77;2.23;;;0.80;99.90;;;;;;5062560;28;20288;-62
2022/01/20 05:03:55;;;;;;;7.97;1.97;;;0.70;99.90;;;;;;5054512;28;20275;-61
2022/01/20 05:06:21;;;;;;;7.00;1.50;;;0.80;99.90;;;;;;5062113;28;20312;-61
2022/01/20 05:08:48;;;;;;;3.47;1.50;;;0.80;99.90;;;;;;5054893;28;20753;-62
2022/01/20 05:11:15;;;;;;;8.43;2.03;;;0.80;99.90;;;;;;5065438;28;20280;-62
2022/01/20 05:13:41;;;;;;;5.90;1.40;;;0.90;99.90;;;;;;5053465;28;20232;-62
2022/01/20 05:16:07;;;;;;;6.10;2.47;;;1.00;99.90;;;;;;5064721;28;20627;-62
2022/01/20 05:18:33;;;;;;;7.87;1.80;;;1.10;99.90;;;;;;5058092;28;20984;-61
2022/01/20 05:20:58;;;;;;;10.67;2.60;;;1.10;99.90;;;;;;5059887;28;20228;-62
2022/01/20 05:23:24;;;;;;;6.67;1.80;;;1.20;99.90;;;;;;5051881;28;20200;-62
2022/01/20 05:25:50;;;;;;;4.57;2.30;;;1.20;99.90;;;;;;5061590;28;20428;-61
2022/01/20 05:28:15;;;;;;;9.30;2.00;;;1.20;99.90;;;;;;5048343;28;20379;-61
2022/01/20 05:30:41;;;;;;;9.40;1.63;;;1.30;99.90;;;;;;5062364;28;20279;-61
2022/01/20 05:33:08;;;;;;;8.20;1.70;;;1.30;99.90;;;;;;5054469;28;20572;-62
2022/01/20 05:35:34;;;;;;;9.37;2.50;;;1.30;99.90;;;;;;5059316;28;20273;-62
2022/01/20 05:37:59;;;;;;;4.03;1.93;;;1.40;99.90;;;;;;5054460;28;20208;-63
2022/01/20 05:40:25;;;;;;;13.33;2.20;;;1.40;99.90;;;;;;5065497;28;20662;-62
2022/01/20 05:42:52;;;;;;;9.43;2.27;;;1.40;99.90;;;;;;5051471;28;20203;-62
2022/01/20 05:45:19;;;;;;;7.97;3.10;;;1.40;99.90;;;;;;5064239;28;20204;-61
2022/01/20 05:47:48;;;;;;;7.50;1.90;;;1.50;99.90;;;;;;5052026;28;20204;-63
2022/01/20 05:50:17;;;;;;;13.83;2.37;;;1.50;99.90;;;;;;5065352;28;20298;-62
2022/01/20 05:52:43;;;;;;;6.40;2.23;;;1.50;99.90;;;;;;5060666;28;20274;-63
2022/01/20 05:55:20;;;;;;;6.63;1.37;;;1.60;99.90;;;;;;5064992;28;20313;-62
2022/01/20 05:57:46;;;;;;;5.93;2.20;;;1.70;99.90;;;;;;5058938;28;20232;-62
2022/01/20 06:00:24;;;;;;;6.33;2.40;;;1.70;99.90;;;;;;5062556;28;20206;-63
2022/01/20 06:05:35;;;;;;;3.83;1.67;;;1.80;99.90;;;;;;5062097;28;20198;-63
2022/01/20 06:08:00;;;;;;;13.23;2.17;;;1.90;99.90;;;;;;5060678;28;20670;-62
2022/01/20 06:10:26;;;;;;;7.67;2.47;;;1.90;99.90;;;;;;5064432;28;20201;-62
2022/01/20 06:12:51;;;;;;;1.87;1.30;;;2.00;99.90;;;;;;5051304;28;20261;-63
2022/01/20 06:15:17;;;;;;;6.23;1.70;;;2.00;99.90;;;;;;5064379;28;20667;-63
2022/01/20 06:17:42;;;;;;;6.00;1.73;;;1.90;99.90;;;;;;5062845;28;20218;-66
2022/01/20 06:20:10;;;;;;;4.63;2.03;;;1.90;99.90;;;;;;5064585;28;20211;-63
2022/01/20 06:22:36;;;;;;;5.77;1.57;;;1.90;99.90;;;;;;5061096;28;20697;-64
2022/01/20 06:25:03;;;;;;;15.40;3.10;;;1.90;99.90;;;;;;5064210;28;20189;-64
2022/01/20 06:27:30;;;;;;;8.53;1.40;;;1.80;99.90;;;;;;5053804;28;20221;-62
2022/01/20 06:29:56;;;;;;;4.73;1.40;;;1.80;99.90;;;;;;5059547;28;20202;-62
2022/01/20 06:32:21;;;;;;;7.87;1.90;;;1.70;99.90;;;;;;5059475;28;20690;-62
2022/01/20 06:34:47;;;;;;;3.00;1.37;;;1.70;99.90;;;;;;5051895;28;20212;-63
2022/01/20 06:37:13;;;;;;;3.57;1.50;;;1.60;99.90;;;;;;5063334;28;20657;-63
2022/01/20 06:39:41;;;;;;;8.73;1.60;;;1.50;99.90;;;;;;5053375;28;20230;-65
2022/01/20 06:42:07;;;;;;;7.23;2.37;;;1.50;99.90;;;;;;5064786;28;20227;-64
2022/01/20 06:44:33;;;;;;;5.13;1.80;;;1.40;99.90;;;;;;5048693;28;20204;-64
2022/01/20 06:46:58;;;;;;;4.67;1.83;;;1.40;99.90;;;;;;5064256;28;20668;-64
2022/01/20 06:49:24;;;;;;;5.83;1.57;;;1.40;99.90;;;;;;5045083;28;20225;-63
2022/01/20 06:51:50;;;;;;;5.20;1.23;;;1.40;99.90;;;;;;5067396;28;20976;-64
2022/01/20 06:54:16;;;;;;;6.27;1.40;;;1.40;99.90;;;;;;5054365;28;20755;-64
2022/01/20 06:56:42;;;;;;;4.53;2.10;;;1.30;99.90;;;;;;5068275;28;20638;-64
2022/01/20 06:59:13;;;;;;;4.40;1.10;;;1.30;99.90;;;;;;5052535;28;20227;-63
2022/01/20 07:01:40;;;;;;;4.37;1.37;;;1.30;99.90;;;;;;5054608;28;20685;-63
2022/01/20 07:04:06;;;;;;;3.07;1.37;;;1.20;99.90;;;;;;5057300;28;20199;-64
2022/01/20 07:06:31;;;;;;;6.90;1.33;;;1.20;99.90;;;;;;5067208;28;20953;-63
2022/01/20 07:08:58;;;;;;;6.57;1.67;;;1.30;99.90;;;;;;5061098;28;20203;-63
2022/01/20 07:11:24;;;;;;;4.10;1.97;;;1.30;99.90;;;;;;5067931;28;20212;-62
2022/01/20 07:13:50;;;;;;;5.90;2.20;;;1.30;99.90;;;;;;5056828;28;20210;-63
2022/01/20 07:16:15;;;;;;;10.07;1.83;;;1.40;99.90;;;;;;5067888;28;20218;-63
2022/01/20 07:18:40;;;;;;;7.10;1.70;;;1.40;99.90;;;;;;5056620;28;20216;-63
2022/01/20 07:21:06;;;;;;;6.40;1.47;;;1.40;99.90;;;;;;5067856;28;20696;-63
2022/01/20 07:23:31;;;;;;;7.07;2.70;;;1.40;99.90;;;;;;5056445;28;20207;-62
2022/01/20 07:25:57;;;;;;;4.33;1.63;;;1.40;99.90;;;;;;5067539;28;20605;-63
2022/01/20 07:28:22;;;;;;;10.17;2.00;;;1.40;99.90;;;;;;5056398;28;20295;-63
2022/01/20 07:30:48;;;;;;;6.17;1.33;;;1.30;99.90;;;;;;5067281;28;20235;-63
2022/01/20 07:33:14;;;;;;;6.87;1.60;;;1.30;99.90;;;;;;5057183;28;20209;-62
2022/01/20 07:35:39;;;;;;;6.97;1.60;;;1.30;99.90;;;;;;5060848;28;20786;-63
2022/01/20 07:38:06;;;;;;;7.03;1.93;;;1.20;99.90;;;;;;5064663;28;20697;-63
2022/01/20 07:40:32;;;;;;;7.80;1.33;;;1.10;99.90;;;;;;5058705;28;20184;-63
2022/01/20 07:42:59;;;;;;;4.10;1.27;;;1.10;99.90;;;;;;5062410;28;20229;-64
2022/01/20 07:45:25;;;;;;;5.83;1.63;;;1.10;99.90;;;;;;5055367;28;20231;-63
2022/01/20 07:47:51;;;;;;;5.73;2.40;;;1.10;99.90;;;;;;5065546;28;20211;-62
2022/01/20 07:50:16;;;;;;;6.57;1.37;;;1.10;99.90;;;;;;5059860;28;20450;-64
2022/01/20 07:52:42;;;;;;;5.67;1.60;;;1.10;99.90;;;;;;5061016;28;20652;-64
2022/01/20 07:55:07;;;;;;;7.60;1.33;;;1.10;99.90;;;;;;5062073;28;20219;-64
2022/01/20 07:57:33;;;;;;;5.57;1.77;;;1.10;99.90;;;;;;5062544;28;20193;-64
2022/01/20 07:59:59;;;;;;;5.80;1.43;;;1.10;99.90;;;;;;5056893;28;20220;-64
2022/01/20 08:02:25;;;;;;;4.70;2.10;;;1.10;99.90;;;;;;5062768;28;20199;-64
2022/01/20 08:04:51;;;;;;;10.03;2.13;;;1.10;99.90;;;;;;5047468;28;20182;-64
2022/01/20 08:07:17;;;;;;;12.80;1.97;;;1.20;99.90;;;;;;5063704;28;20239;-64
2022/01/20 08:09:43;;;;;;;6.87;1.67;;;1.20;99.90;;;;;;5058516;28;20241;-63
2022/01/20 08:12:09;;;;;;;5.00;1.53;;;1.30;99.90;;;;;;5065097;28;20196;-63
2022/01/20 08:14:34;;;;;;;5.23;1.57;;;1.20;99.90;;;;;;5052536;28;20786;-63
2022/01/20 08:17:00;;;;;;;8.00;1.83;;;1.30;99.90;;;;;;5066397;28;20559;-63
2022/01/20 08:19:25;;;;;;;8.43;2.00;;;1.30;99.90;;;;;;5055236;28;20301;-62
2022/01/20 08:21:51;;;;;;;7.40;1.60;;;1.30;99.90;;;;;;5066719;28;20634;-64
2022/01/20 08:24:16;;;;;;;3.37;1.50;;;1.30;99.90;;;;;;5065178;28;20389;-62
2022/01/20 08:26:42;;;;;;;11.40;2.23;;;1.30;99.90;;;;;;5060669;28;20247;-62
2022/01/20 08:29:07;;;;;;;5.20;1.90;;;1.30;99.90;;;;;;5050882;28;20232;-62
2022/01/20 08:31:33;;;;;;;10.87;3.23;;;1.30;99.90;;;;;;5067039;28;20187;-62
2022/01/20 08:33:58;;;;;;;6.03;1.60;;;1.40;99.90;;;;;;5050867;28;20232;-62
2022/01/20 08:36:24;;;;;;;5.33;1.87;;;1.40;99.90;;;;;;5062000;28;20683;-63
2022/01/20 08:38:50;;;;;;;10.53;2.10;;;1.40;99.90;;;;;;5054533;28;20281;-63
2022/01/20 08:41:18;;;;;;;10.40;2.30;;;1.40;99.90;;;;;;5066977;28;20208;-64
2022/01/20 08:43:43;;;;;;;2.60;1.30;;;1.50;99.90;;;;;;5052917;28;20205;-62
2022/01/20 08:46:11;;;;;;;9.53;1.80;;;1.50;99.90;;;;;;5063637;28;20183;-62
2022/01/20 08:48:37;;;;;;;8.07;2.40;;;1.60;99.90;;;;;;5053125;28;20214;-63
2022/01/20 08:51:05;;;;;;;6.77;1.53;;;1.60;99.90;;;;;;5058796;28;20199;-63
2022/01/20 08:53:31;;;;;;;11.63;2.00;;;1.60;99.90;;;;;;5054516;28;20282;-63
2022/01/20 08:55:58;;;;;;;13.50;2.60;;;1.70;99.90;;;;;;5066333;28;20213;-63
2022/01/20 08:58:24;;;;;;;5.13;1.83;;;1.70;99.90;;;;;;5064214;28;20247;-66
2022/01/20 09:00:50;;;;;;;12.57;2.97;;;1.80;99.90;;;;;;5066713;28;20220;-63
2022/01/20 09:03:15;;;;;;;8.57;2.40;;;1.90;99.90;;;;;;5063902;28;20236;-62
2022/01/20 09:05:41;;;;;;;9.33;2.47;;;1.90;99.90;;;;;;5065990;28;20203;-64
2022/01/20 09:08:09;;;;;;;8.37;3.30;;;2.00;99.90;;;;;;5059306;28;20188;-62
2022/01/20 09:10:39;;;;;;;9.00;2.37;;;2.10;99.90;;;;;;5050715;28;20694;-65
2022/01/20 09:15:54;;;;;;;9.13;2.60;;;2.20;99.90;;;;;;5050363;28;20733;-63
2022/01/20 09:18:20;;;;;;;10.13;2.73;;;2.20;99.90;;;;;;5060063;28;20215;-64
2022/01/20 09:20:48;;;;;;;8.40;3.13;;;2.20;99.90;;;;;;5064502;28;20243;-64
2022/01/20 09:23:14;;;;;;;6.73;1.97;;;2.20;99.90;;;;;;5054827;28;20219;-62
2022/01/20 09:25:41;;;;;;;6.93;3.33;;;2.20;99.90;;;;;;5062587;28;20190;-65
2022/01/20 09:28:07;;;;;;;14.70;2.77;;;2.20;99.90;;;;;;5061113;28;20207;-62
2022/01/20 09:30:35;;;;;;;10.43;2.90;;;2.20;99.90;;;;;;5058226;28;20212;-62
2022/01/20 09:35:37;;;;;;;10.60;2.93;;;2.20;99.90;;;;;;5055365;28;20209;-62
2022/01/20 09:38:04;;;;;;;7.83;2.33;;;2.20;99.90;;;;;;5044535;28;20602;-63
2022/01/20 09:40:32;;;;;;;11.43;4.03;;;2.30;99.90;;;;;;5064987;28;20201;-62
2022/01/20 09:42:58;;;;;;;14.80;3.33;;;2.30;99.90;;;;;;5052115;28;20229;-61
2022/01/20 09:45:24;;;;;;;21.07;3.20;;;2.30;99.90;;;;;;5054189;28;20209;-63
2022/01/20 09:47:49;;;;;;;15.87;2.40;;;2.30;99.90;;;;;;5065047;28;20194;-63
2022/01/20 09:50:19;;;;;;;9.97;2.00;;;2.30;99.90;;;;;;5060688;28;20206;-64
2022/01/20 09:52:46;;;;;;;6.93;2.57;;;2.30;99.90;;;;;;5063285;28;20220;-62
2022/01/20 09:55:11;;;;;;;16.57;3.10;;;2.30;99.90;;;;;;5050548;28;20209;-63
2022/01/20 09:57:37;;;;;;;14.77;2.90;;;2.30;99.90;;;;;;5062484;28;20279;-63
2022/01/20 10:00:07;;;;;;;6.33;2.13;;;2.30;99.90;;;;;;5061718;28;20256;-63
2022/01/20 10:02:32;;;;;;;9.93;2.60;;;2.30;99.90;;;;;;5064540;28;20197;-63
2022/01/20 10:04:58;;;;;;;12.00;2.90;;;2.30;99.90;;;;;;5056324;28;20217;-64
2022/01/20 10:07:32;;;;;;;8.80;2.83;;;2.40;99.90;;;;;;5060444;28;20288;-63
2022/01/20 10:09:57;;;;;;;9.37;2.67;;;2.50;99.90;;;;;;5043159;28;20201;-63
2022/01/20 10:12:28;;;;;;;7.03;2.10;;;2.50;99.90;;;;;;5064311;28;20560;-63
2022/01/20 10:14:56;;;;;;;7.27;1.73;;;2.60;99.90;;;;;;5055747;28;20214;-63
2022/01/20 10:17:27;;;;;;;14.40;3.20;;;2.60;99.90;;;;;;5064802;28;20631;-63
2022/01/20 10:20:06;;;;;;;9.93;3.37;;;2.50;99.90;;;;;;5053027;28;20241;-63
2022/01/20 10:22:35;;;;;;;6.43;2.50;;;2.60;99.90;;;;;;5057919;28;20235;-63
2022/01/20 10:25:02;;;;;;;8.53;2.77;;;2.60;99.90;;;;;;5061230;28;20299;-64
2022/01/20 10:27:29;;;;;;;5.33;2.33;;;2.60;99.90;;;;;;5064387;28;20195;-64
2022/01/20 10:30:07;;;;;;;11.47;2.37;;;2.60;99.90;;;;;;5062841;28;20204;-64
2022/01/20 10:32:47;;;;;;;9.13;1.83;;;2.70;99.90;;;;;;5060988;28;20196;-63
2022/01/20 10:35:15;;;;;;;9.03;3.03;;;2.60;99.90;;;;;;5042543;28;20201;-63
2022/01/20 10:37:52;;;;;;;11.37;2.57;;;2.60;99.90;;;;;;5064126;28;20557;-63
2022/01/20 10:40:17;;;;;;;12.63;3.03;;;2.70;99.90;;;;;;5046216;28;20218;-63
2022/01/20 10:42:45;;;;;;;6.73;2.73;;;2.80;99.90;;;;;;5064508;28;20193;-63
2022/01/20 10:45:24;;;;;;;40.67;19.93;;;2.80;99.90;;;;;;5050778;28;20953;-61
2022/01/20 10:47:53;;;;;;;11.33;5.70;;;2.90;99.90;;;;;;5056691;28;20189;-63
2022/01/20 10:50:24;;;;;;;22.27;4.20;;;2.80;99.90;;;;;;5057131;28;20212;-63
2022/01/20 10:52:52;;;;;;;14.30;10.20;;;2.80;99.90;;;;;;5062317;28;20189;-61
2022/01/20 10:55:29;;;;;;;11.43;2.27;;;2.80;99.90;;;;;;5062052;28;20198;-61
2022/01/20 10:57:56;;;;;;;7.07;2.30;;;2.90;99.90;;;;;;5061046;28;20224;-61
2022/01/20 11:00:25;;;;;;;7.77;2.53;;;2.90;99.90;;;;;;5058191;28;20232;-62
2022/01/20 11:02:57;;;;;;;14.13;3.10;;;3.00;99.90;;;;;;5064075;28;20224;-62
2022/01/20 11:05:24;;;;;;;16.53;3.47;;;2.90;99.90;;;;;;5048969;28;20221;-61
2022/01/20 11:07:51;;;;;;;14.83;3.00;;;2.90;99.90;;;;;;5063815;28;20616;-63
2022/01/20 11:10:18;;;;;;;9.93;5.60;;;2.90;99.90;;;;;;5049881;28;20209;-65
2022/01/20 11:12:44;;;;;;;8.67;2.50;;;2.80;99.90;;;;;;5055785;28;20197;-63
2022/01/20 11:15:13;;;;;;;8.63;2.67;;;2.90;99.90;;;;;;5052490;28;20572;-62
2022/01/20 11:17:42;;;;;;;13.40;3.33;;;2.90;99.90;;;;;;5064077;28;20567;-63
2022/01/20 11:20:11;;;;;;;9.20;2.80;;;2.90;99.90;;;;;;5060582;28;20228;-62
2022/01/20 11:22:49;;;;;;;22.83;3.77;;;2.80;99.90;;;;;;5062332;28;20240;-63
2022/01/20 11:25:15;;;;;;;7.57;3.50;;;2.80;99.90;;;;;;5054255;28;20202;-64
2022/01/20 11:27:42;;;;;;;12.53;2.37;;;2.80;99.90;;;;;;5063663;28;20199;-64
2022/01/20 11:30:26;;;;;;;12.60;2.43;;;2.80;99.90;;;;;;5046173;28;20628;-63
2022/01/20 11:33:18;;;;;;;9.97;2.27;;;2.90;99.90;;;;;;5052964;28;20185;-65
2022/01/20 11:35:49;;;;;;;12.13;3.17;;;2.90;99.90;;;;;;5052371;28;20214;-64
2022/01/20 11:38:19;;;;;;;10.60;2.57;;;3.30;99.90;;;;;;5055563;28;20222;-63
2022/01/20 11:41:00;;;;;;;9.50;2.23;;;3.70;99.90;;;;;;5057895;28;20178;-64
2022/01/20 11:43:36;;;;;;;12.73;3.10;;;4.00;99.40;;;;;;5049806;28;20202;-63
2022/01/20 11:46:13;;;;;;;10.43;1.83;;;3.80;99.40;;;;;;5055477;28;20715;-66
2022/01/20 11:48:56;;;;;;;4.33;2.10;;;3.60;99.30;;;;;;5051553;28;20237;-66
2022/01/20 11:51:49;;;;;;;6.00;1.73;;;3.60;99.80;;;;;;5063433;28;20557;-68
2022/01/20 11:54:39;;;;;;;7.80;2.20;;;3.50;99.20;;;;;;5054581;28;20788;-68
2022/01/20 11:57:10;;;;;;;7.87;1.93;;;3.50;98.90;;;;;;5058452;28;20233;-66
2022/01/20 11:59:54;;;;;;;7.60;2.50;;;4.00;99.00;;;;;;5051691;28;20221;-69
2022/01/20 12:02:29;;;;;;;7.30;3.37;;;4.20;98.70;;;;;;5067307;28;20190;-69
2022/01/20 12:04:55;;;;;;;10.07;2.53;;;4.10;98.30;;;;;;5046129;28;20213;-68
2022/01/20 12:07:29;;;;;;;5.87;1.70;;;4.00;98.30;;;;;;5067019;28;20190;-66
2022/01/20 12:10:07;;;;;;;6.30;2.00;;;4.20;98.50;;;;;;5053100;28;20207;-68
2022/01/20 12:12:32;;;;;;;8.33;2.20;;;4.30;97.90;;;;;;5066973;28;20200;-69
2022/01/20 12:15:14;;;;;;;7.90;1.93;;;4.60;98.20;;;;;;5053426;28;20759;-70
2022/01/20 12:17:47;;;;;;;9.20;2.00;;;4.50;98.40;;;;;;5057311;28;20220;-69
2022/01/20 12:20:13;;;;;;;8.20;2.37;;;4.90;97.40;;;;;;5052946;28;20298;-67
2022/01/20 12:22:40;;;;;;;11.90;2.60;;;5.30;96.60;;;;;;5058174;28;20341;-72
2022/01/20 12:25:06;;;;;;;8.97;2.67;;;5.30;96.00;;;;;;5052519;28;20199;-69
2022/01/20 12:27:32;;;;;;;7.30;2.33;;;5.50;95.60;;;;;;5056790;28;20193;-69
2022/01/20 12:29:57;;;;;;;10.27;1.83;;;5.80;96.20;;;;;;5055553;28;20194;-70
2022/01/20 12:32:25;;;;;;;4.37;2.23;;;6.10;95.00;;;;;;5056195;28;20187;-69
2022/01/20 12:34:59;;;;;;;10.33;2.23;;;6.00;94.40;;;;;;5053821;28;20577;-69
2022/01/20 12:37:36;;;;;;;6.80;2.00;;;5.60;94.70;;;;;;5055650;28;20700;-68
2022/01/20 12:40:03;;;;;;;13.93;3.10;;;5.00;94.80;;;;;;5051368;28;20299;-74
2022/01/20 12:42:36;;;;;;;7.57;1.90;;;4.70;95.40;;;;;;5055063;28;20213;-73
2022/01/20 12:45:54;;;;;;;6.57;2.50;;;4.40;96.20;;;;;;5054692;28;20277;-69
2022/01/20 12:47:48;;;;;;;8.50;2.27;;;4.10;96.80;;;;;;5054701;28;20184;-70
2022/01/20 12:50:14;;;;;;;7.83;2.20;;;4.20;97.40;;;;;;5051574;28;20305;-71
2022/01/20 12:52:50;;;;;;;8.43;2.20;;;4.50;97.10;;;;;;5057169;28;20194;-70
2022/01/20 12:55:20;;;;;;;4.67;1.57;;;4.30;97.20;;;;;;5050961;28;20829;-71
2022/01/20 12:57:46;;;;;;;4.47;2.07;;;4.00;97.00;;;;;;5056804;28;20193;-68
2022/01/20 13:00:12;;;;;;;5.90;1.60;;;3.60;97.90;;;;;;5052605;28;20218;-68
2022/01/20 13:02:37;;;;;;;8.80;2.53;;;3.40;98.20;;;;;;5054649;28;20328;-70
2022/01/20 13:05:05;;;;;;;6.87;3.27;;;3.60;98.90;;;;;;5051475;28;20825;-70
2022/01/20 13:07:34;;;;;;;9.07;2.20;;;3.90;97.80;;;;;;5057448;28;20218;-71
2022/01/20 13:10:08;;;;;;;13.50;3.00;;;3.80;97.60;;;;;;5054310;28;20206;-68
2022/01/20 13:12:41;;;;;;;9.67;2.13;;;4.00;96.30;;;;;;5053253;28;20184;-69
2022/01/20 13:15:23;;;;;;;7.37;1.90;;;4.00;96.60;;;;;;5052715;28;20695;-70
2022/01/20 13:18:01;;;;;;;4.70;1.67;;;4.00;96.60;;;;;;5056351;28;20194;-69
2022/01/20 13:20:26;;;;;;;6.43;2.10;;;3.90;96.30;;;;;;5053945;28;20197;-67
2022/01/20 13:23:07;;;;;;;11.43;3.20;;;3.70;96.90;;;;;;5054381;28;20275;-67
2022/01/20 13:25:39;;;;;;;9.00;2.10;;;3.60;97.60;;;;;;5054915;28;20183;-69
2022/01/20 13:28:07;;;;;;;9.90;2.03;;;3.60;97.70;;;;;;5051986;28;20178;-70
2022/01/20 13:30:36;;;;;;;9.43;2.20;;;3.60;98.10;;;;;;5054479;28;20178;-69
2022/01/20 13:33:04;;;;;;;6.30;2.40;;;3.40;97.60;;;;;;5053045;28;20308;-70
2022/01/20 13:35:42;;;;;;;5.90;2.27;;;3.20;98.30;;;;;;5051634;28;20279;-69
2022/01/20 13:38:08;;;;;;;7.70;2.40;;;3.20;98.30;;;;;;5052581;28;20179;-69
2022/01/20 13:40:36;;;;;;;4.50;1.90;;;3.20;97.20;;;;;;5054577;28;20198;-69
2022/01/20 13:45:43;;;;;;;6.00;2.23;;;3.20;97.50;;;;;;5052838;28;20189;-65
2022/01/20 13:48:12;;;;;;;6.53;2.13;;;3.30;98.20;;;;;;5056716;28;20566;-66
2022/01/20 13:50:40;;;;;;;13.07;2.93;;;3.50;97.30;;;;;;5052319;28;20269;-64
2022/01/20 13:53:18;;;;;;;6.10;2.17;;;3.60;97.70;;;;;;5052222;28;20227;-65
2022/01/20 13:55:45;;;;;;;6.40;1.53;;;3.60;97.70;;;;;;5054340;28;20173;-71
2022/01/20 13:58:24;;;;;;;7.33;1.90;;;3.50;97.40;;;;;;5050505;28;20197;-71
2022/01/20 14:00:50;;;;;;;7.13;2.40;;;3.30;97.20;;;;;;5053943;28;20189;-70
2022/01/20 14:03:15;;;;;;;4.10;1.47;;;3.20;97.10;;;;;;5056889;28;20190;-71
2022/01/20 14:05:41;;;;;;;17.43;2.20;;;3.20;98.20;;;;;;5054326;28;20964;-71